Accueil
METAR-TAF:

METAR-TAF

Aéroports :

Rimini, Italie

Aéroport Federico-Fellini

latitude: 44-02N, longitude: 012-37E, altitude: 12 m

Observation

Le bulletin a été fait il y a 48 minutes, à 03:15 UTC
Vent calme
Température 8°C
Humidité 93%
Pression 1018 hPa
Visibilité: 1000 m
Quelques nuages à une hauteur de 500 ft
brume

METAR: LIPR 250315Z 00000KT 1000 R31/P1500 BR FEW005 08/07 Q1018

Heure: 05:03 (04:03 UTC)

Prévision

Le bulletin a été fait il y a 2 heures et 3 minutes, à 02:00 UTC
Prévision valable du 25 à 03 UTC au 25 à 12 UTC
Vent 3 kt de direction variable
Visibilité: 1500 m
Nuages épars à une hauteur de 500 ft
Nuages épars à une hauteur de 2000 ft
brume
Temporairement
du 25 à 03 UTC au 25 à 09 UTC
Visibilité: 0300 m
Nuages fragmentés à une hauteur de 300 ft
brouillard

TAF: LIPR 250200Z 2503/2512 VRB03KT 1500 BR SCT005 SCT020 TEMPO 2503/2509 0300 FG BKN003

Observations et prévisions météorologiques de plus de 4000 aéroports (messages METAR et TAF).

Les stations disponibles sont représentées par des disques jaunes et rouges sur la carte.

Passer la souris dessus pour voir le nom de la station.

Cliquer dessus pour voir les observations et prévisions météorologiques.

Pour changer de carte: cliquez sur les boutons verts avec une croix noire pour zoomer, sur le bouton vert avec un tiret pour effectuer un zoom arrière, ou sur les flèches vertes pour les cartes adjacentes.


METAR-TAF: